createdAt,value
2022-11-03T00:02:07.347Z,95460
2022-11-03T00:05:32.481Z,95455
2022-11-03T00:08:57.782Z,95464
2022-11-03T00:12:23.030Z,95455
2022-11-03T00:15:48.253Z,95452
2022-11-03T00:19:13.542Z,95445
2022-11-03T00:22:38.805Z,95444
2022-11-03T00:26:04.071Z,95454
2022-11-03T00:29:29.414Z,95452
2022-11-03T00:32:54.609Z,95449
2022-11-03T00:36:19.887Z,95445
2022-11-03T00:39:45.114Z,95456
2022-11-03T00:43:10.389Z,95451
2022-11-03T00:46:35.821Z,95448
2022-11-03T00:50:00.900Z,95444
2022-11-03T00:53:26.136Z,95444
2022-11-03T00:56:51.461Z,95446
2022-11-03T01:00:16.716Z,95444
2022-11-03T01:03:41.960Z,95441
2022-11-03T01:07:07.201Z,95441
2022-11-03T01:10:32.452Z,95433
2022-11-03T01:13:57.728Z,95427
2022-11-03T01:17:22.939Z,95424
2022-11-03T01:20:48.265Z,95419
2022-11-03T01:24:13.455Z,95411
2022-11-03T01:27:38.704Z,95418
2022-11-03T01:31:03.971Z,95412
2022-11-03T01:34:29.219Z,95408
2022-11-03T01:37:54.511Z,95399
2022-11-03T01:41:19.709Z,95396
2022-11-03T01:44:44.937Z,95401
2022-11-03T01:48:10.169Z,95398
2022-11-03T01:51:35.432Z,95396
2022-11-03T01:55:00.715Z,95399
2022-11-03T01:58:25.940Z,95390
2022-11-03T02:01:51.222Z,95387
2022-11-03T02:05:16.422Z,95377
2022-11-03T02:08:41.663Z,95372
2022-11-03T02:12:07.004Z,95357
2022-11-03T02:15:32.229Z,95343
2022-11-03T02:18:57.445Z,95343
2022-11-03T02:22:22.714Z,95348
2022-11-03T02:25:47.955Z,95334
2022-11-03T02:29:13.288Z,95330
2022-11-03T02:32:38.499Z,95319
2022-11-03T02:36:03.786Z,95321
2022-11-03T02:39:29.033Z,95318
2022-11-03T02:42:54.229Z,95315
2022-11-03T02:46:19.470Z,95310
2022-11-03T02:49:44.784Z,95306
2022-11-03T02:53:09.992Z,95297
2022-11-03T02:56:35.213Z,95286
2022-11-03T03:00:00.465Z,95288
2022-11-03T03:03:25.693Z,95278
2022-11-03T03:06:50.920Z,95280
2022-11-03T03:10:16.219Z,95282
2022-11-03T03:13:41.496Z,95279
2022-11-03T03:17:06.758Z,95268
2022-11-03T03:20:32.101Z,95262
2022-11-03T03:23:57.314Z,95259
2022-11-03T03:27:22.610Z,95259
2022-11-03T03:30:47.914Z,95252
2022-11-03T03:34:33.719Z,95253
2022-11-03T03:37:38.415Z,95246
2022-11-03T03:41:08.120Z,95240
2022-11-03T03:44:28.891Z,95236
2022-11-03T03:47:57.601Z,95230
2022-11-03T03:51:19.381Z,95218
2022-11-03T03:54:44.666Z,95221
2022-11-03T03:58:10.060Z,95215
2022-11-03T04:01:35.195Z,95211
2022-11-03T04:05:00.394Z,95210
2022-11-03T04:08:25.677Z,95214
2022-11-03T04:11:50.965Z,95215
2022-11-03T04:15:16.226Z,95210
2022-11-03T04:18:41.491Z,95207
2022-11-03T04:22:06.757Z,95212
2022-11-03T04:25:32.003Z,95205
2022-11-03T04:28:57.270Z,95203
2022-11-03T04:32:22.514Z,95197
2022-11-03T04:35:47.750Z,95193
2022-11-03T04:39:13.013Z,95189
2022-11-03T04:42:38.277Z,95181
2022-11-03T04:46:03.569Z,95180
2022-11-03T04:49:28.772Z,95189
2022-11-03T04:52:54.025Z,95182
2022-11-03T04:56:24.367Z,95178
2022-11-03T04:59:50.917Z,95179
2022-11-03T05:03:16.182Z,95170
2022-11-03T05:06:41.387Z,95168
2022-11-03T05:10:06.646Z,95162
2022-11-03T05:13:31.900Z,95151
2022-11-03T05:16:57.144Z,95153
2022-11-03T05:20:22.581Z,95151
2022-11-03T05:23:47.846Z,95151
2022-11-03T05:27:13.088Z,95149
2022-11-03T05:30:38.348Z,95144
2022-11-03T05:34:03.693Z,95148
2022-11-03T05:37:28.978Z,95146
2022-11-03T05:40:54.198Z,95146
2022-11-03T05:44:19.448Z,95139
2022-11-03T05:47:44.685Z,95141
2022-11-03T05:51:09.928Z,95132
2022-11-03T05:54:35.224Z,95135
2022-11-03T05:58:00.434Z,95128
2022-11-03T06:01:25.724Z,95125
2022-11-03T06:04:50.882Z,95120
2022-11-03T06:08:16.208Z,95116
2022-11-03T06:11:41.413Z,95114
2022-11-03T06:15:06.608Z,95109
2022-11-03T06:18:31.848Z,95113
2022-11-03T06:21:57.088Z,95109
2022-11-03T06:25:22.304Z,95105
2022-11-03T06:28:47.564Z,95112
2022-11-03T06:32:12.753Z,95105
2022-11-03T06:35:37.962Z,95105
2022-11-03T06:39:03.177Z,95103
2022-11-03T06:42:31.879Z,95100
2022-11-03T06:45:53.649Z,95096
2022-11-03T06:49:18.847Z,95091
2022-11-03T06:52:44.121Z,95089
2022-11-03T06:56:09.309Z,95088
2022-11-03T06:59:34.515Z,95085
2022-11-03T07:02:59.795Z,95082
2022-11-03T07:06:25.012Z,95083
2022-11-03T07:09:50.254Z,95072
2022-11-03T07:13:15.493Z,95059
2022-11-03T07:16:40.713Z,95068
2022-11-03T07:20:06.036Z,95064
2022-11-03T07:23:31.242Z,95062
2022-11-03T07:26:56.491Z,95060
2022-11-03T07:30:21.712Z,95060
2022-11-03T07:33:46.925Z,95059
2022-11-03T07:40:37.376Z,95063
2022-11-03T07:44:02.628Z,95045
2022-11-03T07:47:27.867Z,95054
2022-11-03T07:50:53.083Z,95054
2022-11-03T07:54:18.352Z,95038
2022-11-03T07:57:43.627Z,95033
2022-11-03T08:01:08.871Z,95029
2022-11-03T08:04:34.091Z,95021
2022-11-03T08:07:59.329Z,95017
2022-11-03T08:11:26.121Z,95010
2022-11-03T08:14:49.814Z,95008
2022-11-03T08:18:15.031Z,95005
2022-11-03T08:21:40.287Z,94995
2022-11-03T08:25:05.540Z,94990
2022-11-03T08:28:30.828Z,94985
2022-11-03T08:31:56.060Z,94978
2022-11-03T08:35:21.296Z,94963
2022-11-03T08:38:46.562Z,94954
2022-11-03T08:42:11.801Z,94955
2022-11-03T08:45:37.095Z,94950
2022-11-03T08:49:02.329Z,94940
2022-11-03T08:52:27.595Z,94942
2022-11-03T08:55:52.867Z,94941
2022-11-03T08:59:18.089Z,94939
2022-11-03T09:02:43.430Z,94940
2022-11-03T09:06:08.572Z,94934
2022-11-03T09:12:59.088Z,94919
2022-11-03T09:16:24.329Z,94918
2022-11-03T09:19:49.580Z,94908
2022-11-03T09:23:14.802Z,94894
2022-11-03T09:26:40.035Z,94899
2022-11-03T09:30:13.803Z,94893
2022-11-03T09:33:30.483Z,94892
2022-11-03T09:36:55.745Z,94876
2022-11-03T09:40:21.021Z,94873
2022-11-03T09:43:46.166Z,94876
2022-11-03T09:47:11.407Z,94871
2022-11-03T09:50:36.623Z,94864
2022-11-03T09:54:01.872Z,94861
2022-11-03T09:57:27.057Z,94854
2022-11-03T10:00:52.361Z,94846
2022-11-03T10:04:17.534Z,94841
2022-11-03T10:07:42.807Z,94832
2022-11-03T10:11:08.007Z,94824
2022-11-03T10:14:33.184Z,94822
2022-11-03T10:17:58.411Z,94816
2022-11-03T10:21:23.638Z,94815
2022-11-03T10:24:48.869Z,94811
2022-11-03T10:28:14.774Z,94807
2022-11-03T10:31:39.336Z,94807
2022-11-03T10:35:04.576Z,94802
2022-11-03T10:38:29.827Z,94792
2022-11-03T10:41:55.052Z,94795
2022-11-03T10:45:20.306Z,94783
2022-11-03T10:48:45.483Z,94775
2022-11-03T10:52:10.696Z,94761
2022-11-03T10:55:36.023Z,94766
2022-11-03T10:59:01.151Z,94755
2022-11-03T11:02:26.656Z,94744
2022-11-03T11:05:51.833Z,94744
2022-11-03T11:09:17.063Z,94733
2022-11-03T11:12:42.304Z,94732
2022-11-03T11:16:07.524Z,94725
2022-11-03T11:19:32.791Z,94720
2022-11-03T11:22:58.012Z,94709
2022-11-03T11:26:23.277Z,94708
2022-11-03T11:29:48.505Z,94701
2022-11-03T11:33:13.731Z,94697
2022-11-03T11:36:38.976Z,94687
2022-11-03T11:40:04.227Z,94675
2022-11-03T11:43:29.469Z,94671
2022-11-03T11:46:54.720Z,94673
2022-11-03T11:50:19.965Z,94661
2022-11-03T11:53:46.116Z,94654
2022-11-03T11:57:10.428Z,94648
2022-11-03T12:00:35.701Z,94645
2022-11-03T12:04:00.996Z,94643
2022-11-03T12:07:26.183Z,94641
2022-11-03T12:10:51.466Z,94628
2022-11-03T12:14:16.648Z,94627
2022-11-03T12:17:41.914Z,94613
2022-11-03T12:21:07.141Z,94607
2022-11-03T12:24:32.506Z,94603
2022-11-03T12:27:57.757Z,94598
2022-11-03T12:31:22.974Z,94591
2022-11-03T12:34:48.272Z,94582
2022-11-03T12:38:13.638Z,94577
2022-11-03T12:41:39.039Z,94577
2022-11-03T12:45:04.339Z,94576
2022-11-03T12:48:29.563Z,94569
2022-11-03T12:51:54.838Z,94567
2022-11-03T12:55:20.188Z,94561
2022-11-03T12:58:45.368Z,94546
2022-11-03T13:02:10.803Z,94532
2022-11-03T13:05:35.893Z,94521
2022-11-03T13:09:01.150Z,94518
2022-11-03T13:12:26.421Z,94514
2022-11-03T13:15:51.676Z,94510
2022-11-03T13:19:16.937Z,94506
2022-11-03T13:22:42.246Z,94498
2022-11-03T13:26:07.528Z,94488
2022-11-03T13:29:35.611Z,94478
2022-11-03T13:32:58.022Z,94473
2022-11-03T13:36:23.297Z,94473
2022-11-03T13:39:48.554Z,94473
2022-11-03T13:43:13.831Z,94469
2022-11-03T13:46:39.066Z,94461
2022-11-03T13:50:20.133Z,94455
2022-11-03T14:00:20.063Z,94432
2022-11-03T14:07:10.504Z,94420
2022-11-03T14:10:35.768Z,94416
2022-11-03T14:14:00.991Z,94409
2022-11-03T14:17:26.241Z,94402
2022-11-03T14:20:51.488Z,94397
2022-11-03T14:24:16.836Z,94398
2022-11-03T14:27:42.206Z,94403
2022-11-03T15:06:16.441Z,94351
2022-11-03T15:09:41.726Z,94352
2022-11-03T15:13:07.358Z,94349
2022-11-03T15:16:32.382Z,94347
2022-11-03T15:19:57.684Z,94330
2022-11-03T15:26:48.264Z,94322
2022-11-03T15:30:13.560Z,94318
2022-11-03T15:33:38.871Z,94307
2022-11-03T15:37:04.192Z,94305
2022-11-03T15:40:29.778Z,94292
2022-11-03T15:43:55.000Z,94292
2022-11-03T15:47:20.267Z,94279
2022-11-03T15:50:45.553Z,94278
2022-11-03T15:54:10.822Z,94269
2022-11-03T15:57:36.097Z,94254
2022-11-03T16:01:01.478Z,94262
2022-11-03T16:04:26.680Z,94258
2022-11-03T16:07:51.930Z,94247
2022-11-03T16:11:17.193Z,94234
2022-11-03T16:14:43.121Z,94233
2022-11-03T16:18:08.644Z,94227
2022-11-03T16:21:34.575Z,94219
2022-11-03T16:24:59.905Z,94222
2022-11-03T16:28:25.148Z,94208
2022-11-03T16:31:50.402Z,94211
2022-11-03T16:35:15.661Z,94205
2022-11-03T16:38:42.447Z,94209
2022-11-03T16:42:07.717Z,94201
2022-11-03T16:45:37.385Z,94194
2022-11-03T16:52:23.440Z,94190
2022-11-03T16:55:48.724Z,94180
2022-11-03T16:59:14.122Z,94168
2022-11-03T17:02:39.381Z,94169
2022-11-03T17:06:04.632Z,94164
2022-11-03T17:09:29.828Z,94141
2022-11-03T17:12:55.087Z,94148
2022-11-03T17:16:20.651Z,94151
2022-11-03T17:19:46.465Z,94153
2022-11-03T17:23:13.059Z,94154
2022-11-03T17:26:42.988Z,94155
2022-11-03T17:30:04.220Z,94145
2022-11-03T17:33:29.506Z,94133
2022-11-03T17:36:54.776Z,94122
2022-11-03T17:40:20.088Z,94131
2022-11-03T17:43:45.323Z,94130
2022-11-03T17:47:10.588Z,94125
2022-11-03T17:50:35.865Z,94120
2022-11-03T17:54:01.169Z,94115
2022-11-03T17:57:26.443Z,94109
2022-11-03T18:00:51.707Z,94097
2022-11-03T18:04:16.950Z,94098
2022-11-03T18:07:42.210Z,94085
2022-11-03T18:11:07.470Z,94072
2022-11-03T18:14:32.911Z,94062
2022-11-03T18:18:02.617Z,94059
2022-11-03T18:21:29.797Z,94053
2022-11-03T18:24:55.483Z,94050
2022-11-03T18:28:20.999Z,94048
2022-11-03T18:31:46.444Z,94044
2022-11-03T18:35:12.654Z,94041
2022-11-03T18:38:37.957Z,94034
2022-11-03T18:42:03.503Z,94024
2022-11-03T18:45:28.886Z,94014
2022-11-03T18:48:54.226Z,94010
2022-11-03T18:52:19.501Z,94005
2022-11-03T18:55:45.773Z,94001
2022-11-03T18:59:11.063Z,93987
2022-11-03T19:02:36.414Z,93973
2022-11-03T19:06:01.695Z,93967
2022-11-03T19:09:27.019Z,93965
2022-11-03T19:12:52.333Z,93964
2022-11-03T19:16:17.703Z,93961
2022-11-03T19:19:42.965Z,93951
2022-11-03T19:23:08.471Z,93953
2022-11-03T19:26:33.495Z,93955
2022-11-03T19:29:58.768Z,93947
2022-11-03T19:33:24.064Z,93938
2022-11-03T19:36:49.365Z,93932
2022-11-03T19:40:15.939Z,93916
2022-11-03T19:43:41.207Z,93908
2022-11-03T19:47:06.492Z,93908
2022-11-03T19:50:31.752Z,93895
2022-11-03T19:53:57.023Z,93888
2022-11-03T19:57:22.335Z,93884
2022-11-03T20:00:47.661Z,93874
2022-11-03T20:04:12.843Z,93880
2022-11-03T20:07:38.107Z,93881
2022-11-03T20:11:03.404Z,93870
2022-11-03T20:14:28.712Z,93863
2022-11-03T20:17:53.968Z,93866
2022-11-03T20:21:19.244Z,93861
2022-11-03T20:24:44.498Z,93855
2022-11-03T20:28:09.767Z,93858
2022-11-03T20:31:35.058Z,93855
2022-11-03T20:35:00.298Z,93858
2022-11-03T20:38:25.559Z,93864
2022-11-03T20:41:50.842Z,93863
2022-11-03T20:45:16.089Z,93871
2022-11-03T20:48:41.383Z,93878
2022-11-03T20:52:07.282Z,93869
2022-11-03T20:55:32.533Z,93861
2022-11-03T20:58:57.768Z,93864
2022-11-03T21:02:23.178Z,93870
2022-11-03T21:05:48.286Z,93876
2022-11-03T21:09:13.508Z,93883
2022-11-03T21:12:38.744Z,93885
2022-11-03T21:16:23.407Z,93878
2022-11-03T21:19:29.266Z,93874
2022-11-03T21:22:54.766Z,93873
2022-11-03T21:26:19.813Z,93877
2022-11-03T21:29:58.755Z,93877
2022-11-03T21:33:10.299Z,93881
2022-11-03T21:36:35.564Z,93881
2022-11-03T21:40:00.824Z,93882
2022-11-03T21:43:26.052Z,93870
2022-11-03T21:46:51.307Z,93858
2022-11-03T21:50:16.558Z,93858
2022-11-03T21:53:41.820Z,93850
2022-11-03T21:57:07.114Z,93847
2022-11-03T22:00:32.326Z,93839
2022-11-03T22:03:57.581Z,93834
2022-11-03T22:07:22.815Z,93832
2022-11-03T22:10:48.037Z,93836
2022-11-03T22:14:13.309Z,93830
2022-11-03T22:17:38.531Z,93831
2022-11-03T22:21:03.781Z,93832
2022-11-03T22:24:29.006Z,93823
2022-11-03T22:27:54.239Z,93831
2022-11-03T22:31:19.514Z,93839
2022-11-03T22:34:44.720Z,93855
2022-11-03T22:38:10.221Z,93836
2022-11-03T22:41:35.242Z,93830
2022-11-03T22:45:00.500Z,93828
2022-11-03T22:48:25.767Z,93818
2022-11-03T22:51:51.007Z,93801
2022-11-03T22:55:16.259Z,93806
2022-11-03T22:58:41.513Z,93792
2022-11-03T23:02:06.963Z,93791
2022-11-03T23:05:32.045Z,93776
2022-11-03T23:08:57.250Z,93757
2022-11-03T23:12:22.494Z,93754
2022-11-03T23:15:47.741Z,93751
2022-11-03T23:19:12.984Z,93761
2022-11-03T23:22:38.265Z,93762
2022-11-03T23:26:03.499Z,93786
2022-11-03T23:29:28.732Z,93783
2022-11-03T23:32:53.980Z,93786
2022-11-03T23:36:19.219Z,93791
2022-11-03T23:39:44.503Z,93795
2022-11-03T23:43:09.724Z,93799
2022-11-03T23:46:34.965Z,93806
2022-11-03T23:50:00.212Z,93805
2022-11-03T23:53:25.449Z,93797
2022-11-03T23:56:50.716Z,93801
